»·PEaware :: N103K KVNY-KABQ

N103K :: KVNY-KABQ

FLIGHT INFORMATION

Flight Status: Arrived
Operator: Privately registered:
United States
More flights under this callsign
Pilot: Andrew C. (28419)
Aircraft: SOCATA TBM-900
(TBM9)
More flights by this aircraft type
Origin: KVNY Van Nuys
United States
Destination: KABQ Albuquerque Intl Sunport
United States
More flights between these airports :: More routes between these airports
Route: RSCO3 HEC J6 ZUN LAVAN3
File this flight plan on PilotEdge
Remarks: RMK / SIMBRIEF
Altitude:
(Current/Filed)
29,000ft
Speed:
(Current/Filed)
322kts
Departed: 31-Jul-20 08:48 PM
Arrived: 31-Jul-20 10:45 PM
Distance/Time
Traveled:
588nm/1:57
Distance/Time
To Go:
Arrived

Flight Plot

Page will automatically refresh every two minutes.


Map Options




Map Legend


Flown Route
Filed Route
Departure Airport
Arrival Airport
Navaid (VOR, NDB)
Fix

Horizontal Profiles

Position Reports

Time Latitude Longitude Heading Altitude Ground
Speed
31-Jul-20 20:24 34.205642 -118.487539 89 805ft 0kts
31-Jul-20 20:25 34.205642 -118.487539 89 805ft 0kts
31-Jul-20 20:26 34.205642 -118.487539 89 805ft 0kts
31-Jul-20 20:27 34.205642 -118.487539 89 805ft 0kts
31-Jul-20 20:28 34.205642 -118.487539 89 805ft 0kts
31-Jul-20 20:29 34.205642 -118.487539 89 805ft 0kts
31-Jul-20 20:30 34.205642 -118.487539 89 805ft 0kts
31-Jul-20 20:31 34.205642 -118.487539 89 805ft 0kts
31-Jul-20 20:32 34.205642 -118.487539 89 805ft 0kts
31-Jul-20 20:33 34.205642 -118.487539 89 805ft 0kts
31-Jul-20 20:34 34.205642 -118.487539 89 805ft 0kts
31-Jul-20 20:35 34.205642 -118.487539 89 805ft 0kts
31-Jul-20 20:36 34.205642 -118.487539 89 805ft 0kts
31-Jul-20 20:37 34.205642 -118.487539 89 805ft 0kts
31-Jul-20 20:38 34.205642 -118.487539 89 805ft 0kts
31-Jul-20 20:39 34.205642 -118.487539 89 805ft 0kts
31-Jul-20 20:40 34.205658 -118.487827 262 805ft 2kts
31-Jul-20 20:41 34.205730 -118.488276 316 805ft 10kts
31-Jul-20 20:42 34.208825 -118.488241 355 805ft 15kts
31-Jul-20 20:43 34.214037 -118.488740 355 805ft 15kts
31-Jul-20 20:44 34.218606 -118.489456 355 805ft 5kts
31-Jul-20 20:45 34.218741 -118.489493 332 805ft 0kts
31-Jul-20 20:46 34.218741 -118.489493 332 805ft 0kts
31-Jul-20 20:47 34.213742 -118.490780 176 805ft 105kts
31-Jul-20 20:48 34.182666 -118.472956 121 3100ft 143kts
31-Jul-20 20:49 34.187402 -118.432398 358 5303ft 155kts
31-Jul-20 20:50 34.228092 -118.432088 354 7735ft 149kts
31-Jul-20 20:51 34.272221 -118.435047 349 9511ft 173kts
31-Jul-20 20:52 34.318444 -118.439575 347 11634ft 166kts
31-Jul-20 20:53 34.367625 -118.430907 10 14249ft 177kts
31-Jul-20 20:54 34.413159 -118.412069 48 16888ft 173kts
31-Jul-20 20:55 34.443738 -118.363796 51 18876ft 181kts
31-Jul-20 20:56 34.471601 -118.310250 67 20788ft 186kts
31-Jul-20 20:57 34.492380 -118.252011 68 22475ft 192kts
31-Jul-20 20:58 34.511650 -118.190571 79 23977ft 197kts
31-Jul-20 20:59 34.524523 -118.124297 78 25659ft 205kts
31-Jul-20 21:00 34.537805 -118.055970 78 27545ft 210kts
31-Jul-20 21:01 34.551655 -117.984357 77 29013ft 225kts
31-Jul-20 21:02 34.568937 -117.895097 76 29010ft 286kts
31-Jul-20 21:03 34.589829 -117.786511 76 29092ft 327kts
31-Jul-20 21:04 34.612504 -117.668309 76 29086ft 341kts
31-Jul-20 21:05 34.635691 -117.547153 76 29084ft 345kts
31-Jul-20 21:06 34.658937 -117.424996 76 29084ft 345kts
31-Jul-20 21:07 34.681446 -117.306051 77 29080ft 338kts
31-Jul-20 21:08 34.703867 -117.186868 77 29081ft 336kts
31-Jul-20 21:09 34.726122 -117.067933 76 29088ft 335kts
31-Jul-20 21:10 34.743501 -116.947419 81 29095ft 335kts
31-Jul-20 21:11 34.757097 -116.826051 81 29094ft 335kts
31-Jul-20 21:12 34.770519 -116.705049 81 29081ft 335kts
31-Jul-20 21:13 34.783735 -116.584869 81 29069ft 335kts
31-Jul-20 21:14 34.796546 -116.464272 86 29048ft 334kts
31-Jul-20 21:15 34.796065 -116.343445 90 29055ft 334kts
31-Jul-20 21:16 34.794977 -116.221437 90 29054ft 333kts
31-Jul-20 21:17 34.793770 -116.100042 90 29028ft 334kts
31-Jul-20 21:18 34.792410 -115.978187 89 28953ft 335kts
31-Jul-20 21:20 34.790975 -115.855486 89 28906ft 334kts
31-Jul-20 21:21 34.789406 -115.734241 89 28907ft 332kts
31-Jul-20 21:22 34.787735 -115.614085 89 28907ft 332kts
31-Jul-20 21:23 34.785931 -115.492793 89 28912ft 332kts
31-Jul-20 21:24 34.784028 -115.373156 89 28913ft 332kts
31-Jul-20 21:25 34.782095 -115.258195 89 28911ft 331kts
31-Jul-20 21:26 34.780058 -115.143735 89 28895ft 332kts
31-Jul-20 21:27 34.777875 -115.026904 89 28847ft 332kts
31-Jul-20 21:28 34.775487 -114.905969 89 28813ft 331kts
31-Jul-20 21:29 34.772978 -114.784868 89 28813ft 330kts
31-Jul-20 21:30 34.770361 -114.664135 89 28814ft 329kts
31-Jul-20 21:31 34.767609 -114.542699 89 28814ft 328kts
31-Jul-20 21:32 34.764701 -114.419751 89 28814ft 328kts
31-Jul-20 21:33 34.761697 -114.297466 89 28813ft 328kts
31-Jul-20 21:34 34.758566 -114.175071 89 28860ft 327kts
31-Jul-20 21:35 34.755325 -114.053162 89 28976ft 325kts
31-Jul-20 21:36 34.751966 -113.931831 89 29041ft 325kts
31-Jul-20 21:37 34.748477 -113.809413 89 29040ft 326kts
31-Jul-20 21:38 34.744932 -113.689584 89 29040ft 326kts
31-Jul-20 21:38 34.741856 -113.588666 89 29040ft 326kts
31-Jul-20 21:40 34.737412 -113.447563 88 29039ft 327kts
31-Jul-20 21:41 34.733458 -113.326344 89 29037ft 327kts
31-Jul-20 21:41 34.730065 -113.224657 89 29037ft 327kts
31-Jul-20 21:43 34.725209 -113.083761 89 29036ft 327kts
31-Jul-20 21:43 34.721646 -112.983538 88 29064ft 326kts
31-Jul-20 21:44 34.717230 -112.862086 88 29146ft 325kts
31-Jul-20 21:45 34.712699 -112.740539 88 29200ft 325kts
31-Jul-20 21:46 34.707995 -112.618140 88 29200ft 326kts
31-Jul-20 21:47 34.703151 -112.495467 88 29201ft 326kts
31-Jul-20 21:48 34.712362 -112.374433 78 29200ft 322kts
31-Jul-20 21:49 34.723286 -112.255182 79 29201ft 322kts
31-Jul-20 21:50 34.734134 -112.135583 79 29211ft 322kts
31-Jul-20 21:51 34.744792 -112.016725 79 29226ft 322kts
31-Jul-20 21:52 34.755367 -111.897432 78 29246ft 321kts
31-Jul-20 21:53 34.765931 -111.776956 78 29260ft 320kts
31-Jul-20 21:54 34.776349 -111.656746 78 29268ft 320kts
31-Jul-20 21:55 34.786620 -111.536834 78 29275ft 321kts
31-Jul-20 21:56 34.796700 -111.417734 78 29283ft 320kts
31-Jul-20 21:57 34.806659 -111.298724 79 29289ft 320kts
31-Jul-20 21:58 34.816445 -111.180372 79 29297ft 320kts
31-Jul-20 21:59 34.826069 -111.062570 79 29286ft 321kts
31-Jul-20 22:00 34.835524 -110.945389 78 29233ft 321kts
31-Jul-20 22:01 34.844886 -110.827986 78 29187ft 321kts
31-Jul-20 22:02 34.854128 -110.710622 78 29180ft 320kts
31-Jul-20 22:03 34.862984 -110.596717 78 29174ft 320kts
31-Jul-20 22:04 34.872027 -110.479028 78 29168ft 320kts
31-Jul-20 22:05 34.880761 -110.363783 78 29162ft 319kts
31-Jul-20 22:06 34.889341 -110.249148 79 29161ft 319kts
31-Jul-20 22:07 34.898076 -110.130883 79 29177ft 319kts
31-Jul-20 22:08 34.906686 -110.012732 79 29235ft 318kts
31-Jul-20 22:09 34.915158 -109.894898 79 29289ft 318kts
31-Jul-20 22:10 34.923491 -109.777428 79 29289ft 319kts
31-Jul-20 22:11 34.931560 -109.662074 79 29289ft 319kts
31-Jul-20 22:12 34.939383 -109.548699 79 29289ft 319kts
31-Jul-20 22:13 34.947191 -109.434387 79 28973ft 326kts
31-Jul-20 22:14 34.954789 -109.320535 79 29289ft 318kts
31-Jul-20 22:15 34.962370 -109.206127 79 29288ft 319kts
31-Jul-20 22:16 34.952672 -109.090771 98 29310ft 329kts
31-Jul-20 22:17 34.928872 -108.975578 98 29337ft 329kts
31-Jul-20 22:18 34.904953 -108.860287 98 29344ft 330kts
31-Jul-20 22:19 34.880947 -108.745163 98 29344ft 330kts
31-Jul-20 22:20 34.856756 -108.629749 98 29342ft 330kts
31-Jul-20 22:21 34.832487 -108.514555 98 29336ft 330kts
31-Jul-20 22:22 34.807951 -108.398515 99 28855ft 343kts
31-Jul-20 22:23 34.781560 -108.274502 100 26873ft 363kts
31-Jul-20 22:24 34.754709 -108.149130 101 25225ft 357kts
31-Jul-20 22:25 34.728363 -108.026708 101 23577ft 346kts
31-Jul-20 22:26 34.702455 -107.906919 101 21963ft 343kts
31-Jul-20 22:27 34.677124 -107.790387 102 20385ft 323kts
31-Jul-20 22:28 34.676556 -107.681656 58 18863ft 302kts
31-Jul-20 22:29 34.717578 -107.586019 58 17446ft 299kts
31-Jul-20 22:30 34.759158 -107.488873 58 16097ft 292kts
31-Jul-20 22:31 34.799343 -107.394719 58 15297ft 284kts
31-Jul-20 22:32 34.838293 -107.303175 59 14030ft 278kts
31-Jul-20 22:33 34.851562 -107.202894 82 12701ft 273kts
31-Jul-20 22:34 34.858107 -107.102670 82 11390ft 269kts
31-Jul-20 22:35 34.864318 -107.006801 83 10464ft 259kts
31-Jul-20 22:36 34.870399 -106.911802 84 9209ft 256kts
31-Jul-20 22:37 34.876323 -106.818204 83 8056ft 251kts
31-Jul-20 22:38 34.920831 -106.752591 45 7980ft 234kts
31-Jul-20 22:39 34.954488 -106.712226 47 7237ft 93kts
31-Jul-20 22:40 34.974139 -106.688590 47 6651ft 95kts
31-Jul-20 22:41 34.993185 -106.665585 42 6137ft 97kts
31-Jul-20 22:42 35.012434 -106.642474 42 5615ft 94kts
31-Jul-20 22:43 35.029021 -106.622397 45 5315ft 53kts
31-Jul-20 22:44 35.034658 -106.617478 19 5315ft 1kts
31-Jul-20 22:45 35.035803 -106.616537 55 5315ft 10kts
31-Jul-20 22:46 35.037740 -106.616345 337 5315ft 0kts
31-Jul-20 22:47 35.037740 -106.616345 337 5315ft 0kts

Navigation Log

Ident Type
Flight plan parsing failed, navigation log unavailable